Flight Track Log - Related Links

Times and Time Zones

All times are in EDT time to prevent confusion due to time zone crossing. See the UAL143 flight status page for this flight to view local times or setup timezone preferences in your user account.

Time Position Orientation Groundspeed Altitude Reporting Facility
EDT Latitude Longitude Course Direction KTS MPH feet Rate Location/Type
Thu 06:01:00 PM 7.0104 2.5898 357° North  Level Estimated
Thu 06:02:00 PM 7.0968 2.4434 North  Level Estimated
Thu 06:03:00 PM 7.1832 2.2969 356° North  Level Estimated
Thu 06:04:00 PM 7.2824 2.1589 306° West  Level FlightAware Approximate
Thu 06:05:00 PM 7.3688 2.0123 North  Level Estimated
Thu 06:06:00 PM 7.4550 1.8656 North  Level Estimated
Thu 06:07:00 PM 7.5413 1.7189 357° North  Level Estimated
Thu 06:08:00 PM 7.6953 1.6485 336° Northwest  Level FlightAware Approximate
Thu 06:09:00 PM 7.7814 1.5016 358° North  Level Estimated
Thu 06:10:00 PM 7.9462 1.4632 347° North  Level FlightAware Approximate
Thu 06:11:00 PM 8.0323 1.3163 North  Level Estimated
Thu 06:12:00 PM 8.1184 1.1693 357° North  Level Estimated
Thu 06:13:00 PM 8.2875 1.1672 359° North  Level FlightAware Approximate
Thu 06:14:00 PM 8.4565 1.1651 359° North  Level FlightAware Approximate
Thu 06:15:00 PM 8.6256 1.1630 359° North  Level FlightAware Approximate
Thu 06:16:00 PM 8.7947 1.1609 359° North  Level FlightAware Approximate
Thu 06:17:00 PM 8.9638 1.1588 359° North  Level FlightAware Approximate
Thu 06:18:00 PM 9.1329 1.1567 359° North  Level FlightAware Approximate
Thu 06:19:00 PM 9.3019 1.1547 359° North  Level FlightAware Approximate
Thu 06:20:00 PM 9.4710 1.1526 359° North  Level FlightAware Approximate
Thu 06:21:00 PM 9.6401 1.1505 359° North  Level FlightAware Approximate
Thu 06:22:00 PM 9.8092 1.1484 359° North  Level FlightAware Approximate
Thu 06:23:00 PM 9.8953 1.0006 358° North  Level Estimated
Thu 06:24:00 PM 10.0642 1.0088 North  Level FlightAware Approximate
Thu 06:25:00 PM 10.2331 1.0169 North  Level FlightAware Approximate
Thu 06:26:00 PM 10.4020 1.0250 North  Level FlightAware Approximate
Thu 06:27:00 PM 10.5709 1.0332 North  Level FlightAware Approximate
Thu 06:28:00 PM 10.6569 0.8850 358° North  Level Estimated
Thu 06:29:00 PM 10.8255 0.8987 North  Level FlightAware Approximate
Thu 06:30:00 PM 10.9940 0.9124 North  Level FlightAware Approximate
Thu 06:31:00 PM 11.1626 0.9261 North  Level FlightAware Approximate
Thu 06:32:00 PM 11.3312 0.9398 North  Level FlightAware Approximate
Thu 06:33:00 PM 11.4997 0.9535 North  Level FlightAware Approximate
Thu 06:34:00 PM 11.5857 0.8048 358° North  Level Estimated
Thu 06:35:00 PM 11.7545 0.8151 North  Level FlightAware Approximate
Thu 06:36:00 PM 11.9233 0.8254 North  Level FlightAware Approximate
Thu 06:37:00 PM 12.0921 0.8357 North  Level FlightAware Approximate
Thu 06:38:00 PM 12.2609 0.8461 North  Level FlightAware Approximate
Thu 06:39:00 PM 12.4297 0.8564 North  Level FlightAware Approximate
Thu 06:40:00 PM 12.5984 0.8668 North  Level FlightAware Approximate
Thu 06:41:00 PM 12.7672 0.8771 North  Level FlightAware Approximate
Thu 06:42:00 PM 12.9360 0.8875 North  Level FlightAware Approximate
Thu 06:43:00 PM 13.1048 0.8979 North  Level FlightAware Approximate
Thu 06:44:00 PM 13.2736 0.9083 North  Level FlightAware Approximate
Thu 06:45:00 PM 13.3595 0.7586 358° North  Level Estimated
Thu 06:46:00 PM 13.5284 0.7667 North  Level FlightAware Approximate
Thu 06:47:00 PM 13.6973 0.7748 North  Level FlightAware Approximate
Thu 06:48:00 PM 13.8662 0.7829 North  Level FlightAware Approximate
Thu 06:49:00 PM 14.0351 0.7910 North  Level FlightAware Approximate
Thu 06:50:00 PM 14.2040 0.7992 North  Level FlightAware Approximate
Thu 06:51:00 PM 14.3729 0.8073 North  Level FlightAware Approximate
Thu 06:52:00 PM 14.5419 0.8155 North  Level FlightAware Approximate
Thu 06:53:00 PM 14.7108 0.8236 North  Level FlightAware Approximate
Thu 06:54:00 PM 14.8797 0.8318 North  Level FlightAware Approximate
Thu 06:55:00 PM 15.0486 0.8400 North  Level FlightAware Approximate
Thu 06:56:00 PM 15.1343 0.6890 358° North  Level Estimated
Thu 06:57:00 PM 15.3033 0.6843 358° North  Level FlightAware Approximate
Thu 06:58:00 PM 15.4724 0.6796 358° North  Level FlightAware Approximate
Thu 06:59:00 PM 15.6414 0.6748 358° North  Level FlightAware Approximate
Thu 07:00:00 PM 15.8104 0.6701 358° North  Level FlightAware Approximate
Thu 07:01:00 PM 15.9795 0.6653 358° North  Level FlightAware Approximate
Thu 07:02:00 PM 16.1485 0.6605 358° North  Level FlightAware Approximate
Thu 07:03:00 PM 16.3175 0.6557 358° North  Level FlightAware Approximate
Thu 07:04:00 PM 16.4865 0.6510 358° North  Level FlightAware Approximate
Thu 07:05:00 PM 16.6556 0.6462 358° North  Level FlightAware Approximate
Thu 07:06:00 PM 16.8246 0.6414 358° North  Level FlightAware Approximate
Thu 07:07:00 PM 16.9936 0.6366 358° North  Level FlightAware Approximate
Thu 07:08:00 PM 17.1627 0.6317 358° North  Level FlightAware Approximate
Thu 07:09:00 PM 17.3317 0.6269 358° North  Level FlightAware Approximate
Thu 07:10:00 PM 17.5007 0.6221 358° North  Level FlightAware Approximate
Thu 07:11:00 PM 17.6698 0.6172 358° North  Level FlightAware Approximate
Thu 07:12:00 PM 17.8388 0.6123 358° North  Level FlightAware Approximate
Thu 07:13:00 PM 18.0078 0.6075 358° North  Level FlightAware Approximate
Thu 07:14:00 PM 18.1768 0.6026 358° North  Level FlightAware Approximate
Thu 07:15:00 PM 18.3459 0.5977 358° North  Level FlightAware Approximate
Thu 07:16:00 PM 18.5149 0.5928 358° North  Level FlightAware Approximate
Thu 07:17:00 PM 18.6839 0.5879 358° North  Level FlightAware Approximate
Thu 07:18:00 PM 18.8530 0.5830 358° North  Level FlightAware Approximate
Thu 07:19:00 PM 19.0220 0.5781 358° North  Level FlightAware Approximate
Thu 07:20:00 PM 19.1910 0.5732 358° North  Level FlightAware Approximate
Thu 07:21:00 PM 19.3601 0.5682 358° North  Level FlightAware Approximate
Thu 07:22:00 PM 19.5291 0.5633 358° North  Level FlightAware Approximate
Thu 07:23:00 PM 19.6981 0.5583 358° North  Level FlightAware Approximate
Thu 07:24:00 PM 19.8671 0.5533 358° North  Level FlightAware Approximate
Thu 07:25:00 PM 20.0362 0.5483 358° North  Level FlightAware Approximate
Thu 07:26:00 PM 20.2052 0.5433 358° North  Level FlightAware Approximate
Thu 07:27:00 PM 20.3742 0.5383 358° North  Level FlightAware Approximate
Thu 07:28:00 PM 20.5433 0.5333 358° North  Level FlightAware Approximate
Thu 07:29:00 PM 20.7123 0.5283 358° North  Level FlightAware Approximate
Thu 07:30:00 PM 20.8813 0.5232 358° North  Level FlightAware Approximate
Thu 07:31:00 PM 21.0504 0.5182 358° North  Level FlightAware Approximate
Thu 07:32:00 PM 21.2194 0.5131 358° North  Level FlightAware Approximate
Thu 07:33:00 PM 21.3884 0.5081 358° North  Level FlightAware Approximate
Thu 07:34:00 PM 21.5574 0.5030 358° North  Level FlightAware Approximate
Thu 07:35:00 PM 21.7265 0.4979 358° North  Level FlightAware Approximate
Thu 07:36:00 PM 21.8955 0.4928 358° North  Level FlightAware Approximate
Thu 07:37:00 PM 22.0645 0.4876 358° North  Level FlightAware Approximate
Thu 07:38:00 PM 22.2336 0.4825 358° North  Level FlightAware Approximate
Thu 07:39:00 PM 22.4026 0.4773 358° North  Level FlightAware Approximate
Thu 07:40:00 PM 22.5716 0.4722 358° North  Level FlightAware Approximate
Thu 07:41:00 PM 22.7407 0.4670 358° North  Level FlightAware Approximate
Thu 07:42:00 PM 22.9097 0.4618 358° North  Level FlightAware Approximate
Thu 07:43:00 PM 23.0787 0.4566 358° North  Level FlightAware Approximate
Thu 07:44:00 PM 23.2477 0.4514 358° North  Level FlightAware Approximate
Thu 07:45:00 PM 23.4168 0.4462 358° North  Level FlightAware Approximate
Thu 07:46:00 PM 23.5858 0.4410 358° North  Level FlightAware Approximate
Thu 07:47:00 PM 23.7548 0.4357 358° North  Level FlightAware Approximate
Thu 07:48:00 PM 23.9239 0.4304 358° North  Level FlightAware Approximate
Thu 07:49:00 PM 24.0929 0.4252 358° North  Level FlightAware Approximate
Thu 07:50:00 PM 24.2619 0.4199 358° North  Level FlightAware Approximate
Thu 07:51:00 PM 24.4310 0.4146 358° North  Level FlightAware Approximate
Thu 07:52:00 PM 24.6000 0.4092 358° North  Level FlightAware Approximate
Thu 07:53:00 PM 24.7690 0.4039 358° North  Level FlightAware Approximate
Thu 07:54:00 PM 24.9380 0.3986 358° North  Level FlightAware Approximate
Thu 07:55:00 PM 25.1071 0.3932 358° North  Level FlightAware Approximate
Thu 07:56:00 PM 25.2761 0.3878 358° North  Level FlightAware Approximate
Thu 07:57:00 PM 25.4451 0.3824 358° North  Level FlightAware Approximate
Thu 07:58:00 PM 25.6142 0.3770 358° North  Level FlightAware Approximate
Thu 07:59:00 PM 25.7829 0.3716 358° North  Level FlightAware Approximate
Thu 08:00:00 PM 25.9517 0.3662 358° North  Level FlightAware Approximate
Thu 08:01:00 PM 26.1205 0.3607 358° North  Level FlightAware Approximate
Thu 08:02:00 PM 26.2893 0.3553 358° North  Level FlightAware Approximate
Thu 08:03:00 PM 26.4581 0.3498 358° North  Level FlightAware Approximate
Thu 08:04:00 PM 26.6269 0.3443 358° North  Level FlightAware Approximate
Thu 08:05:00 PM 26.7957 0.3388 358° North  Level FlightAware Approximate
Thu 08:06:00 PM 26.9645 0.3332 358° North  Level FlightAware Approximate
Thu 08:07:00 PM 27.1333 0.3277 358° North  Level FlightAware Approximate
Thu 08:08:00 PM 27.3021 0.3221 358° North  Level FlightAware Approximate
Thu 08:09:00 PM 27.4708 0.3165 358° North  Level FlightAware Approximate
Thu 08:10:00 PM 27.6396 0.3109 358° North  Level FlightAware Approximate
Thu 08:11:00 PM 27.8084 0.3053 358° North  Level FlightAware Approximate
Thu 08:12:00 PM 27.9770 0.2997 358° North  Level FlightAware Approximate
Thu 08:13:00 PM 28.1455 0.2941 358° North  Level FlightAware Approximate
Thu 08:14:00 PM 28.3141 0.2884 358° North  Level FlightAware Approximate
Thu 08:15:00 PM 28.4827 0.2827 358° North  Level FlightAware Approximate
Thu 08:16:00 PM 28.6512 0.2770 358° North  Level FlightAware Approximate
Thu 08:17:00 PM 28.8198 0.2713 358° North  Level FlightAware Approximate
Thu 08:18:00 PM 28.9883 0.2656 358° North  Level FlightAware Approximate
Thu 08:19:00 PM 29.1569 0.2598 358° North  Level FlightAware Approximate
Thu 08:20:00 PM 29.3255 0.2541 358° North  Level FlightAware Approximate
Thu 08:21:00 PM 29.4940 0.2483 358° North  Level FlightAware Approximate
Thu 08:22:00 PM 29.6626 0.2425 358° North  Level FlightAware Approximate
Thu 08:23:00 PM 29.8312 0.2366 358° North  Level FlightAware Approximate
Thu 08:24:00 PM 29.9997 0.2308 358° North  Level FlightAware Approximate
Thu 08:25:00 PM 30.1683 0.2249 358° North  Level FlightAware Approximate
Thu 08:26:00 PM 30.3368 0.2190 358° North  Level FlightAware Approximate
Thu 08:27:00 PM 30.5054 0.2131 358° North  Level FlightAware Approximate
Thu 08:28:00 PM 30.6740 0.2072 358° North  Level FlightAware Approximate
Thu 08:29:00 PM 30.8425 0.2012 358° North  Level FlightAware Approximate
Thu 08:30:00 PM 31.0111 0.1953 358° North  Level FlightAware Approximate
Thu 08:31:00 PM 31.1796 0.1893 358° North  Level FlightAware Approximate
Thu 08:32:00 PM 31.3482 0.1833 358° North  Level FlightAware Approximate
Thu 08:33:00 PM 31.5167 0.1772 358° North  Level FlightAware Approximate
Thu 08:34:00 PM 31.6853 0.1712 358° North  Level FlightAware Approximate
Thu 08:35:00 PM 31.8538 0.1651 358° North  Level FlightAware Approximate
Thu 08:36:00 PM 32.0224 0.1590 358° North  Level FlightAware Approximate
Thu 08:37:00 PM 32.1909 0.1529 358° North  Level FlightAware Approximate
Thu 08:38:00 PM 32.3595 0.1467 358° North  Level FlightAware Approximate
Thu 08:39:00 PM 32.5280 0.1406 358° North  Level FlightAware Approximate
Thu 08:40:00 PM 32.6966 0.1344 358° North  Level FlightAware Approximate
Thu 08:41:00 PM 32.8651 0.1282 358° North  Level FlightAware Approximate
Thu 08:42:00 PM 33.0337 0.1219 358° North  Level FlightAware Approximate
Thu 08:43:00 PM 33.2022 0.1157 358° North  Level FlightAware Approximate
Thu 08:44:00 PM 33.3708 0.1094 358° North  Level FlightAware Approximate
Thu 08:45:00 PM 33.5393 0.1031 358° North  Level FlightAware Approximate
Thu 08:46:00 PM 33.7079 0.0967 358° North  Level FlightAware Approximate
Thu 08:47:00 PM 33.8764 0.0904 358° North  Level FlightAware Approximate
Thu 08:48:00 PM 34.0450 0.0840 358° North  Level FlightAware Approximate
Thu 08:49:00 PM 34.2135 0.0776 358° North  Level FlightAware Approximate
Thu 08:50:00 PM 34.3821 0.0711 358° North  Level FlightAware Approximate
Thu 08:51:00 PM 34.5506 0.0647 358° North  Level FlightAware Approximate
Thu 08:52:00 PM 34.6296 -0.1163 357° North  Level Estimated
Thu 08:53:00 PM 34.7982 -0.1190 359° North  Level FlightAware Approximate
Thu 08:54:00 PM 34.9668 -0.1216 359° North  Level FlightAware Approximate
Thu 08:55:00 PM 35.1354 -0.1242 359° North  Level FlightAware Approximate
Thu 08:56:00 PM 35.3041 -0.1269 359° North  Level FlightAware Approximate
Thu 08:57:00 PM 35.4727 -0.1295 359° North  Level FlightAware Approximate
Thu 08:58:00 PM 35.6413 -0.1322 359° North  Level FlightAware Approximate
Thu 08:59:00 PM 35.8099 -0.1349 359° North  Level FlightAware Approximate
Thu 09:00:00 PM 35.9785 -0.1376 359° North  Level FlightAware Approximate
Thu 09:01:00 PM 36.1472 -0.1403 359° North  Level FlightAware Approximate
Thu 09:02:00 PM 36.3158 -0.1430 359° North  Level FlightAware Approximate
Thu 09:03:00 PM 36.4844 -0.1458 359° North  Level FlightAware Approximate
Thu 09:04:00 PM 36.6530 -0.1485 359° North  Level FlightAware Approximate
Thu 09:05:00 PM 36.8217 -0.1513 359° North  Level FlightAware Approximate
Thu 09:06:00 PM 36.9903 -0.1540 359° North  Level FlightAware Approximate
Thu 09:07:00 PM 37.1589 -0.1568 359° North  Level FlightAware Approximate
Thu 09:08:00 PM 37.3275 -0.1596 359° North  Level FlightAware Approximate
Thu 09:09:00 PM 37.4961 -0.1624 359° North  Level FlightAware Approximate
Thu 09:10:00 PM 37.6647 -0.1652 359° North  Level FlightAware Approximate
Thu 09:11:00 PM 37.8334 -0.1681 359° North  Level FlightAware Approximate
Thu 09:12:00 PM 38.0020 -0.1709 359° North  Level FlightAware Approximate
Thu 09:13:00 PM 38.0787 -0.3616 357° North  Level Estimated
Thu 09:14:00 PM 38.2473 -0.3661 359° North  Level FlightAware Approximate
Thu 09:15:00 PM 38.4159 -0.3707 359° North  Level FlightAware Approximate
Thu 09:16:00 PM 38.5845 -0.3753 359° North  Level FlightAware Approximate
Thu 09:17:00 PM 38.7531 -0.3800 359° North  Level FlightAware Approximate
Thu 09:18:00 PM 38.9217 -0.3846 359° North  Level FlightAware Approximate
Thu 09:19:00 PM 39.0903 -0.3893 359° North  Level FlightAware Approximate
Thu 09:20:00 PM 39.2589 -0.3940 359° North  Level FlightAware Approximate
Thu 09:21:00 PM 39.4274 -0.3987 359° North  Level FlightAware Approximate
Thu 09:22:00 PM 39.5960 -0.4035 359° North  Level FlightAware Approximate
Thu 09:23:00 PM 39.7646 -0.4083 359° North  Level FlightAware Approximate
Thu 09:24:00 PM 39.9332 -0.4130 359° North  Level FlightAware Approximate
Thu 09:25:00 PM 40.1018 -0.4179 359° North  Level FlightAware Approximate
Thu 09:26:00 PM 40.2704 -0.4227 359° North  Level FlightAware Approximate
Thu 09:27:00 PM 40.4390 -0.4276 359° North  Level FlightAware Approximate
Thu 09:28:00 PM 40.6071 -0.4324 359° North  Level FlightAware Approximate
Thu 09:29:00 PM 40.7752 -0.4374 359° North  Level FlightAware Approximate
Thu 09:30:00 PM 40.9434 -0.4423 359° North  Level FlightAware Approximate
Thu 09:31:00 PM 41.1115 -0.4472 359° North  Level FlightAware Approximate
Thu 09:32:00 PM 41.2796 -0.4522 359° North  Level FlightAware Approximate
Thu 09:33:00 PM 41.4478 -0.4572 359° North  Level FlightAware Approximate
Thu 09:34:00 PM 41.6159 -0.4622 359° North  Level FlightAware Approximate
Thu 09:35:00 PM 41.7840 -0.4673 359° North  Level FlightAware Approximate
Thu 09:36:00 PM 41.9522 -0.4724 359° North  Level FlightAware Approximate
Thu 09:37:00 PM 42.1203 -0.4775 359° North  Level FlightAware Approximate
Thu 09:38:00 PM 42.2884 -0.4826 359° North  Level FlightAware Approximate
Thu 09:39:00 PM 42.4566 -0.4878 359° North  Level FlightAware Approximate
Thu 09:40:00 PM 42.6247 -0.4930 359° North  Level FlightAware Approximate
Thu 09:41:00 PM 42.7928 -0.4982 359° North  Level FlightAware Approximate
Thu 09:42:00 PM 42.9609 -0.5034 359° North  Level FlightAware Approximate
Thu 09:43:00 PM 43.1291 -0.5087 359° North  Level FlightAware Approximate
Thu 09:44:00 PM 43.2017 -0.7167 260° West  Level Estimated
Thu 09:45:00 PM 43.2168 -0.9465 275° West  Level FlightAware Approximate
Thu 09:46:00 PM 43.2315 -1.1764 275° West  Level FlightAware Approximate
Thu 09:47:00 PM 43.2457 -1.4064 275° West  Level FlightAware Approximate
Thu 09:48:00 PM 43.2595 -1.6365 275° West  Level FlightAware Approximate
Thu 09:49:00 PM 43.2728 -1.8668 275° West  Level FlightAware Approximate
Thu 09:50:00 PM 43.2856 -2.0971 274° West  Level FlightAware Approximate
Thu 09:51:00 PM 43.2980 -2.3275 274° West  Level FlightAware Approximate
Thu 09:52:00 PM 43.3099 -2.5580 274° West  Level FlightAware Approximate
Thu 09:53:00 PM 43.3214 -2.7886 274° West  Level FlightAware Approximate
Thu 09:54:00 PM 43.3324 -3.0193 274° West  Level FlightAware Approximate
Thu 09:55:00 PM 43.3429 -3.2501 274° West  Level FlightAware Approximate
Thu 09:56:00 PM 43.3530 -3.4809 274° West  Level FlightAware Approximate
Thu 09:57:00 PM 43.3625 -3.7118 273° West  Level FlightAware Approximate
Thu 09:58:00 PM 43.3717 -3.9428 273° West  Level FlightAware Approximate
Thu 09:59:00 PM 43.3803 -4.1739 273° West  Level FlightAware Approximate
Thu 10:00:00 PM 43.3885 -4.4050 273° West  Level FlightAware Approximate
Thu 10:01:00 PM 43.3963 -4.6362 273° West  Level FlightAware Approximate
Thu 10:02:00 PM 43.4036 -4.8675 273° West  Level FlightAware Approximate
Thu 10:03:00 PM 43.4104 -5.0988 272° West  Level FlightAware Approximate
Thu 10:04:00 PM 43.4167 -5.3301 272° West  Level FlightAware Approximate
Thu 10:05:00 PM 43.4226 -5.5615 272° West  Level FlightAware Approximate
Thu 10:06:00 PM 43.4280 -5.7930 272° West  Level FlightAware Approximate
Thu 10:07:00 PM 43.4329 -6.0244 272° West  Level FlightAware Approximate
Thu 10:08:00 PM 43.4374 -6.2559 272° West  Level FlightAware Approximate
Thu 10:09:00 PM 43.4414 -6.4875 271° West  Level FlightAware Approximate
Thu 10:10:00 PM 43.4449 -6.7191 271° West  Level FlightAware Approximate
Thu 10:11:00 PM 43.4480 -6.9507 271° West  Level FlightAware Approximate
Thu 10:12:00 PM 43.4506 -7.1823 271° West  Level FlightAware Approximate
Thu 10:13:00 PM 43.4527 -7.4139 271° West  Level FlightAware Approximate
Thu 10:14:00 PM 43.4544 -7.6456 271° West  Level FlightAware Approximate
Thu 10:15:00 PM 43.4556 -7.8773 270° West  Level FlightAware Approximate
Thu 10:16:00 PM 43.4563 -8.1089 270° West  Level FlightAware Approximate
Thu 10:17:00 PM 43.4566 -8.3406 270° West  Level FlightAware Approximate
Thu 10:18:00 PM 43.4564 -8.5723 270° West  Level FlightAware Approximate
Thu 10:19:00 PM 43.4557 -8.8040 270° West  Level FlightAware Approximate
Thu 10:20:00 PM 43.4546 -9.0356 270° West  Level FlightAware Approximate
Thu 10:21:00 PM 43.4529 -9.2673 270° West  Level FlightAware Approximate
Thu 10:22:00 PM 43.4509 -9.4989 269° West  Level FlightAware Approximate
Thu 10:23:00 PM 43.4376 -9.6431 254° West  Level FlightAware Approximate
Thu 10:24:00 PM 43.3910 -9.8656 254° West  Level FlightAware Approximate
Thu 10:25:00 PM 43.3441 -10.0877 254° West  Level FlightAware Approximate
Thu 10:26:00 PM 43.2967 -10.3095 254° West  Level FlightAware Approximate
Thu 10:27:00 PM 43.2488 -10.5309 254° West  Level FlightAware Approximate
Thu 10:28:00 PM 43.2006 -10.7520 253° West  Level FlightAware Approximate
Thu 10:29:00 PM 43.1519 -10.9728 253° West  Level FlightAware Approximate
Thu 10:30:00 PM 43.1028 -11.1932 253° West  Level FlightAware Approximate
Thu 10:31:00 PM 43.0533 -11.4132 253° West  Level FlightAware Approximate
Thu 10:32:00 PM 43.0033 -11.6329 253° West  Level FlightAware Approximate
Thu 10:33:00 PM 42.9529 -11.8522 253° West  Level FlightAware Approximate
Thu 10:34:00 PM 42.9021 -12.0711 252° West  Level FlightAware Approximate
Thu 10:35:00 PM 42.8509 -12.2897 252° West  Level FlightAware Approximate
Thu 10:36:00 PM 42.7993 -12.5079 252° West  Level FlightAware Approximate
Thu 10:37:00 PM 42.7473 -12.7258 252° West  Level FlightAware Approximate
Thu 10:38:00 PM 42.6949 -12.9433 252° West  Level FlightAware Approximate
Thu 10:39:00 PM 42.6420 -13.1604 252° West  Level FlightAware Approximate
Thu 10:40:00 PM 42.5887 -13.3772 252° West  Level FlightAware Approximate
Thu 10:41:00 PM 42.5351 -13.5936 251° West  Level FlightAware Approximate
Thu 10:42:00 PM 42.4810 -13.8096 251° West  Level FlightAware Approximate
Thu 10:43:00 PM 42.4265 -14.0252 251° West  Level FlightAware Approximate
Thu 10:44:00 PM 42.3716 -14.2405 251° West  Level FlightAware Approximate
Thu 10:45:00 PM 42.3163 -14.4554 251° West  Level FlightAware Approximate
Thu 10:46:00 PM 42.2607 -14.6699 251° West  Level FlightAware Approximate
Thu 10:47:00 PM 42.2046 -14.8840 251° West  Level FlightAware Approximate
Thu 10:48:00 PM 42.1481 -15.0978 250° West  Level FlightAware Approximate
Thu 10:49:00 PM 42.0912 -15.3111 250° West  Level FlightAware Approximate
Thu 10:50:00 PM 42.0339 -15.5241 250° West  Level FlightAware Approximate
Thu 10:51:00 PM 41.9762 -15.7367 250° West  Level FlightAware Approximate
Thu 10:52:00 PM 41.9182 -15.9489 250° West  Level FlightAware Approximate
Thu 10:53:00 PM 41.8597 -16.1607 250° West  Level FlightAware Approximate
Thu 10:54:00 PM 41.8009 -16.3722 250° West  Level FlightAware Approximate
Thu 10:55:00 PM 41.7417 -16.5832 249° West  Level FlightAware Approximate
Thu 10:56:00 PM 41.6820 -16.7939 249° West  Level FlightAware Approximate
Thu 10:57:00 PM 41.6221 -17.0042 249° West  Level FlightAware Approximate
Thu 10:58:00 PM 41.5617 -17.2140 249° West  Level FlightAware Approximate
Thu 10:59:00 PM 41.5009 -17.4235 249° West  Level FlightAware Approximate
Thu 11:00:00 PM 41.4398 -17.6326 249° West  Level FlightAware Approximate
Thu 11:01:00 PM 41.3784 -17.8407 249° West  Level FlightAware Approximate
Thu 11:02:00 PM 41.3167 -18.0484 248° West  Level FlightAware Approximate
Thu 11:03:00 PM 41.2546 -18.2558 248° West  Level FlightAware Approximate
Thu 11:04:00 PM 41.1921 -18.4627 248° West  Level FlightAware Approximate
Thu 11:05:00 PM 41.1293 -18.6693 248° West  Level FlightAware Approximate
Thu 11:06:00 PM 41.0661 -18.8754 248° West  Level FlightAware Approximate
Thu 11:07:00 PM 41.0025 -19.0812 248° West  Level FlightAware Approximate
Thu 11:08:00 PM 40.9386 -19.2865 248° West  Level FlightAware Approximate
Thu 11:09:00 PM 40.8744 -19.4916 248° West  Level FlightAware Approximate
Thu 11:10:00 PM 40.8098 -19.6962 247° West  Level FlightAware Approximate
Thu 11:11:00 PM 40.7449 -19.9004 247° West  Level FlightAware Approximate
Thu 11:12:00 PM 40.6796 -20.1042 247° West  Level FlightAware Approximate
Thu 11:13:00 PM 40.6140 -20.3076 247° West  Level FlightAware Approximate
Thu 11:14:00 PM 40.5480 -20.5106 247° West  Level FlightAware Approximate
Thu 11:15:00 PM 40.4816 -20.7132 247° West  Level FlightAware Approximate
Thu 11:16:00 PM 40.4149 -20.9154 247° West  Level FlightAware Approximate
Thu 11:17:00 PM 40.3478 -21.1172 246° West  Level FlightAware Approximate
Thu 11:18:00 PM 40.2804 -21.3186 246° West  Level FlightAware Approximate
Thu 11:19:00 PM 40.2127 -21.5196 246° West  Level FlightAware Approximate
Thu 11:20:00 PM 40.1446 -21.7202 246° West  Level FlightAware Approximate
Thu 11:21:00 PM 40.0761 -21.9204 246° West  Level FlightAware Approximate
Thu 11:22:00 PM 40.0073 -22.1202 246° West  Level FlightAware Approximate
Thu 11:23:00 PM 39.9382 -22.3196 246° West  Level FlightAware Approximate
Thu 11:24:00 PM 39.8687 -22.5186 246° West  Level FlightAware Approximate
Thu 11:25:00 PM 39.7988 -22.7172 245° Southwest  Level FlightAware Approximate
Thu 11:26:00 PM 39.7286 -22.9153 245° Southwest  Level FlightAware Approximate
Thu 11:27:00 PM 39.6580 -23.1130 245° Southwest  Level FlightAware Approximate
Thu 11:28:00 PM 39.5871 -23.3104 245° Southwest  Level FlightAware Approximate
Thu 11:29:00 PM 39.5159 -23.5073 245° Southwest  Level FlightAware Approximate
Thu 11:30:00 PM 39.4443 -23.7038 245° Southwest  Level FlightAware Approximate
Thu 11:31:00 PM 39.3724 -23.8999 245° Southwest  Level FlightAware Approximate
Thu 11:32:00 PM 39.3002 -24.0956 245° Southwest  Level FlightAware Approximate
Thu 11:33:00 PM 39.2276 -24.2909 244° Southwest  Level FlightAware Approximate
Thu 11:34:00 PM 39.1547 -24.4858 244° Southwest  Level FlightAware Approximate
Thu 11:35:00 PM 39.0815 -24.6803 244° Southwest  Level FlightAware Approximate
Thu 11:36:00 PM 39.0080 -24.8744 244° Southwest  Level FlightAware Approximate
Thu 11:37:00 PM 38.9342 -25.0681 244° Southwest  Level FlightAware Approximate
Thu 11:38:00 PM 38.8600 -25.2613 244° Southwest  Level FlightAware Approximate
Thu 11:39:00 PM 38.7855 -25.4542 244° Southwest  Level FlightAware Approximate
Thu 11:40:00 PM 38.7107 -25.6467 244° Southwest  Level FlightAware Approximate
Thu 11:41:00 PM 38.6356 -25.8388 243° Southwest  Level FlightAware Approximate
Thu 11:42:00 PM 38.5601 -26.0304 243° Southwest  Level FlightAware Approximate
Thu 11:43:00 PM 38.4844 -26.2217 243° Southwest  Level FlightAware Approximate
Thu 11:44:00 PM 38.4083 -26.4125 243° Southwest  Level FlightAware Approximate
Thu 11:45:00 PM 38.3320 -26.6030 243° Southwest  Level FlightAware Approximate
Thu 11:46:00 PM 38.2553 -26.7931 243° Southwest  Level FlightAware Approximate
Thu 11:47:00 PM 38.1783 -26.9827 243° Southwest  Level FlightAware Approximate
Thu 11:48:00 PM 38.1010 -27.1720 243° Southwest  Level FlightAware Approximate
Thu 11:49:00 PM 38.0235 -27.3608 243° Southwest  Level FlightAware Approximate
Thu 11:50:00 PM 37.9456 -27.5493 242° Southwest  Level FlightAware Approximate
Thu 11:51:00 PM 37.8674 -27.7373 242° Southwest  Level FlightAware Approximate
Thu 11:52:00 PM 37.7889 -27.9250 242° Southwest  Level FlightAware Approximate
Thu 11:53:00 PM 37.7101 -28.1122 242° Southwest  Level FlightAware Approximate
Thu 11:54:00 PM 37.6310 -28.2991 242° Southwest  Level FlightAware Approximate
Thu 11:55:00 PM 37.5517 -28.4856 242° Southwest  Level FlightAware Approximate
Thu 11:56:00 PM 37.4720 -28.6716 242° Southwest  Level FlightAware Approximate
Thu 11:57:00 PM 37.3921 -28.8573 242° Southwest  Level FlightAware Approximate
Thu 11:58:00 PM 37.3118 -29.0426 241° Southwest  Level FlightAware Approximate
Thu 11:59:00 PM 37.2313 -29.2274 241° Southwest  Level FlightAware Approximate
Fri 12:00:00 AM 37.1505 -29.4119 241° Southwest  Level FlightAware Approximate
Fri 12:01:00 AM 37.0694 -29.5960 241° Southwest  Level FlightAware Approximate
Fri 12:02:00 AM 36.9880 -29.7797 241° Southwest  Level FlightAware Approximate
Fri 12:03:00 AM 36.9063 -29.9630 241° Southwest  Level FlightAware Approximate
Fri 12:04:00 AM 36.8243 -30.1459 241° Southwest  Level FlightAware Approximate
Fri 12:05:00 AM 36.7420 -30.3284 241° Southwest  Level FlightAware Approximate
Fri 12:06:00 AM 36.6595 -30.5104 241° Southwest  Level FlightAware Approximate
Fri 12:07:00 AM 36.5766 -30.6921 240° Southwest  Level FlightAware Approximate
Fri 12:08:00 AM 36.4934 -30.8734 240° Southwest  Level FlightAware Approximate
Fri 12:09:00 AM 36.4100 -31.0543 240° Southwest  Level FlightAware Approximate
Fri 12:10:00 AM 36.3263 -31.2348 240° Southwest  Level FlightAware Approximate
Fri 12:11:00 AM 36.2424 -31.4149 240° Southwest  Level FlightAware Approximate
Fri 12:12:00 AM 36.1581 -31.5946 240° Southwest  Level FlightAware Approximate
Fri 12:13:00 AM 36.0736 -31.7740 240° Southwest  Level FlightAware Approximate
Fri 12:14:00 AM 35.9889 -31.9529 240° Southwest  Level FlightAware Approximate
Fri 12:15:00 AM 35.9039 -32.1315 240° Southwest  Level FlightAware Approximate
Fri 12:16:00 AM 35.8186 -32.3097 239° Southwest  Level FlightAware Approximate
Fri 12:17:00 AM 35.7330 -32.4875 239° Southwest  Level FlightAware Approximate
Fri 12:18:00 AM 35.6472 -32.6649 239° Southwest  Level FlightAware Approximate
Fri 12:19:00 AM 35.5611 -32.8419 239° Southwest  Level FlightAware Approximate
Fri 12:20:00 AM 35.4748 -33.0186 239° Southwest  Level FlightAware Approximate
Fri 12:21:00 AM 35.3882 -33.1949 239° Southwest  Level FlightAware Approximate
Fri 12:22:00 AM 35.3014 -33.3708 239° Southwest  Level FlightAware Approximate
Fri 12:23:00 AM 35.2143 -33.5463 239° Southwest  Level FlightAware Approximate
Fri 12:24:00 AM 35.1269 -33.7215 239° Southwest  Level FlightAware Approximate
Fri 12:25:00 AM 35.0393 -33.8962 239° Southwest  Level FlightAware Approximate
Fri 12:26:00 AM 34.9515 -34.0706 238° Southwest  Level FlightAware Approximate
Fri 12:27:00 AM 34.8634 -34.2447 238° Southwest  Level FlightAware Approximate
Fri 12:28:00 AM 34.7750 -34.4183 238° Southwest  Level FlightAware Approximate
Fri 12:29:00 AM 34.6864 -34.5916 238° Southwest  Level FlightAware Approximate
Fri 12:30:00 AM 34.5976 -34.7645 238° Southwest  Level FlightAware Approximate
Fri 12:31:00 AM 34.5085 -34.9370 238° Southwest  Level FlightAware Approximate
Fri 12:32:00 AM 34.4192 -35.1092 238° Southwest  Level FlightAware Approximate
Fri 12:33:00 AM 34.3296 -35.2810 238° Southwest  Level FlightAware Approximate
Fri 12:33:34 AM 24.2167 -47.1500 287° West 459 528 36,000  Level New York Oceanic (ODAPS)
Fri 12:34:00 AM 34.2398 -35.4524 238° Southwest  Level FlightAware Approximate
Fri 12:35:00 AM 34.1497 -35.6235 238° Southwest  Level FlightAware Approximate
Fri 12:36:00 AM 34.0595 -35.7942 237° Southwest  Level FlightAware Approximate
Fri 12:37:00 AM 33.9689 -35.9645 237° Southwest  Level FlightAware Approximate
Fri 12:38:00 AM 33.8782 -36.1345 237° Southwest  Level FlightAware Approximate
Fri 12:39:00 AM 24.4459 -47.9606 287° West 459 528 36,000  Level FlightAware Transoceanic
Fri 12:40:00 AM 24.4837 -48.0960 287° West 459 528 36,000  Level FlightAware Transoceanic
Fri 12:41:00 AM 24.5214 -48.2315 287° West 459 528 36,000  Level FlightAware Transoceanic
Fri 12:42:00 AM 24.5590 -48.3671 287° West 459 528 36,000  Level FlightAware Transoceanic
Fri 12:43:00 AM 24.5964 -48.5027 287° West 459 528 36,000  Level FlightAware Transoceanic
Fri 12:44:00 AM 24.6337 -48.6384 287° West 459 528 36,000  Level FlightAware Transoceanic
Fri 12:45:00 AM 24.6709 -48.7742 287° West 459 528 36,000  Level FlightAware Transoceanic
Fri 12:46:00 AM 24.7079 -48.9101 287° West 459 528 36,000  Level FlightAware Transoceanic
Fri 12:47:00 AM 24.7449 -49.0460 287° West 459 528 36,000  Level FlightAware Transoceanic
Fri 12:47:15 AM 24.7333 -49.0167 287° West 464 534 36,000  Level New York Oceanic (ODAPS)
Fri 12:48:00 AM 24.7817 -49.1821 287° West 459 528 36,000  Level FlightAware Transoceanic
Fri 12:49:00 AM 24.8184 -49.3182 287° West 459 528 36,000  Level FlightAware Transoceanic
Fri 12:50:00 AM 24.8549 -49.4544 286° West 459 528 36,000  Level FlightAware Transoceanic
Fri 12:51:00 AM 24.8914 -49.5907 286° West 459 528 36,000  Level FlightAware Transoceanic
Fri 12:52:00 AM 24.9277 -49.7270 286° West 459 528 36,000  Level FlightAware Transoceanic
Fri 12:53:00 AM 24.9623 -49.8593 286° West 464 534 36,000  Level FlightAware Transoceanic
Fri 12:54:00 AM 25.0000 -50.0000 278° West 464 534 36,000  Level FlightAware Transoceanic
Fri 12:54:21 AM 25.0000 -50.0000 278° West 473 544 36,000  Level New York Oceanic (ODAPS)
Fri 12:55:00 AM 25.0196 -50.1457 278° West 464 534 36,000  Level FlightAware Transoceanic
Fri 12:56:00 AM 25.0390 -50.2915 278° West 464 534 36,000  Level FlightAware Transoceanic
Fri 12:57:00 AM 25.0583 -50.4373 278° West 464 534 36,000  Level FlightAware Transoceanic
Fri 12:58:00 AM 25.0775 -50.5832 278° West 464 534 36,000  Level FlightAware Transoceanic
Fri 12:59:00 AM 25.0965 -50.7291 278° West 464 534 36,000  Level FlightAware Transoceanic
Fri 01:00:00 AM 25.1137 -50.8624 278° West 473 544 36,000  Level FlightAware Transoceanic
Fri 01:01:00 AM 25.1322 -51.0063 278° West 473 544 36,000  Level FlightAware Transoceanic
Fri 01:01:08 AM 25.1333 -50.9500 278° West 487 560 36,000  Level New York Oceanic (ODAPS)
Fri 01:02:00 AM 25.1505 -51.1502 278° West 473 544 36,000  Level FlightAware Transoceanic
Fri 01:03:00 AM 25.1687 -51.2942 278° West 473 544 36,000  Level FlightAware Transoceanic
Fri 01:04:00 AM 25.1867 -51.4382 278° West 473 544 36,000  Level FlightAware Transoceanic
Fri 01:05:00 AM 25.2046 -51.5822 278° West 473 544 36,000  Level FlightAware Transoceanic
Fri 01:06:00 AM 25.2224 -51.7263 278° West 473 544 36,000  Level FlightAware Transoceanic
Fri 01:07:00 AM 25.2431 -51.8339 278° West 487 560 36,000  Level FlightAware Transoceanic
Fri 01:08:00 AM 25.2609 -51.9814 278° West 487 560 36,000  Level FlightAware Transoceanic
Fri 01:09:00 AM 25.2785 -52.1289 278° West 487 560 36,000  Level FlightAware Transoceanic
Fri 01:10:00 AM 25.2960 -52.2764 277° West 487 560 36,000  Level FlightAware Transoceanic
Fri 01:11:00 AM 25.3134 -52.4240 277° West 487 560 36,000  Level FlightAware Transoceanic
Fri 01:12:00 AM 25.3306 -52.5717 277° West 487 560 36,000  Level FlightAware Transoceanic
Fri 01:13:00 AM 25.3476 -52.7193 277° West 487 560 36,000  Level FlightAware Transoceanic
Fri 01:14:00 AM 25.3645 -52.8671 277° West 487 560 36,000  Level FlightAware Transoceanic
Fri 01:14:58 AM 25.3833 -53.0500 277° West 502 578 36,000  Level New York Oceanic (ODAPS)
Fri 01:15:00 AM 25.3813 -53.0148 277° West 487 560 36,000  Level FlightAware Transoceanic
Fri 01:16:00 AM 25.3979 -53.1626 277° West 487 560 36,000  Level FlightAware Transoceanic
Fri 01:17:00 AM 25.4144 -53.3105 277° West 487 560 36,000  Level FlightAware Transoceanic
Fri 01:18:00 AM 25.4307 -53.4584 277° West 487 560 36,000  Level FlightAware Transoceanic
Fri 01:19:00 AM 25.4468 -53.6063 277° West 487 560 36,000  Level FlightAware Transoceanic
Fri 01:20:00 AM 25.4629 -53.7543 277° West 487 560 36,000  Level FlightAware Transoceanic
Fri 01:21:00 AM 25.4845 -53.9723 277° West 502 578 36,000  Level FlightAware Transoceanic
Fri 01:22:00 AM 25.5008 -54.1261 277° West 502 578 36,000  Level FlightAware Transoceanic
Fri 01:23:00 AM 25.5170 -54.2800 277° West 502 578 36,000  Level FlightAware Transoceanic
Fri 01:24:00 AM 25.5329 -54.4339 277° West 502 578 36,000  Level FlightAware Transoceanic
Fri 01:25:00 AM 25.5488 -54.5879 276° West 502 578 36,000  Level FlightAware Transoceanic
Fri 01:26:00 AM 25.5644 -54.7420 276° West 502 578 36,000  Level FlightAware Transoceanic
Fri 01:27:00 AM 25.5799 -54.8960 276° West 502 578 36,000  Level FlightAware Transoceanic
Fri 01:28:00 AM 25.5953 -55.0501 276° West 502 578 36,000  Level FlightAware Transoceanic
Fri 01:28:46 AM 25.6000 -55.2000 276° West 500 575 36,000  Level New York Oceanic (ODAPS)
Fri 01:29:00 AM 25.6104 -55.2043 276° West 502 578 36,000  Level FlightAware Transoceanic
Fri 01:30:00 AM 25.6255 -55.3584 276° West 502 578 36,000  Level FlightAware Transoceanic
Fri 01:31:00 AM 25.6403 -55.5127 276° West 502 578 36,000  Level FlightAware Transoceanic
Fri 01:32:00 AM 25.6550 -55.6669 276° West 502 578 36,000  Level FlightAware Transoceanic
Fri 01:33:00 AM 25.6695 -55.8212 276° West 502 578 36,000  Level FlightAware Transoceanic
Fri 01:34:00 AM 25.6839 -55.9755 276° West 502 578 36,000  Level FlightAware Transoceanic
Fri 01:35:00 AM 25.6897 -56.1264 276° West 500 575 36,000  Level FlightAware Transoceanic
Fri 01:36:00 AM 25.7041 -56.2809 276° West 500 575 36,000  Level FlightAware Transoceanic
Fri 01:37:00 AM 25.7183 -56.4355 276° West 500 575 36,000  Level FlightAware Transoceanic
Fri 01:38:00 AM 25.7323 -56.5901 276° West 500 575 36,000  Level FlightAware Transoceanic
Fri 01:39:00 AM 25.7462 -56.7448 276° West 500 575 36,000  Level FlightAware Transoceanic
Fri 01:40:00 AM 25.7600 -56.8994 276° West 500 575 36,000  Level FlightAware Transoceanic
Fri 01:41:00 AM 25.7735 -57.0542 276° West 500 575 36,000  Level FlightAware Transoceanic
Fri 01:42:00 AM 25.7869 -57.2089 275° West 500 575 36,000  Level FlightAware Transoceanic
Fri 01:42:37 AM 25.8000 -57.3000 275° West 493 567 36,000  Level New York Oceanic (ODAPS)
Fri 01:43:00 AM 25.8002 -57.3637 275° West 500 575 36,000  Level FlightAware Transoceanic
Fri 01:44:00 AM 25.8132 -57.5185 275° West 500 575 36,000  Level FlightAware Transoceanic
Fri 01:45:00 AM 25.8261 -57.6734 275° West 500 575 36,000  Level FlightAware Transoceanic
Fri 01:46:00 AM 25.8389 -57.8283 275° West 500 575 36,000  Level FlightAware Transoceanic
Fri 01:47:00 AM 25.8515 -57.9832 275° West 500 575 36,000  Level FlightAware Transoceanic
Fri 01:48:00 AM 25.8722 -58.1990 275° West 493 567 36,000  Level FlightAware Transoceanic
Fri 01:49:00 AM 25.8837 -58.3489 275° West 493 567 36,000  Level FlightAware Transoceanic
Fri 01:50:00 AM 25.8951 -58.4989 275° West 493 567 36,000  Level FlightAware Transoceanic
Fri 01:51:00 AM 25.9062 -58.6489 275° West 493 567 36,000  Level FlightAware Transoceanic
Fri 01:52:00 AM 25.9173 -58.7989 275° West 493 567 36,000  Level FlightAware Transoceanic
Fri 01:53:00 AM 25.9282 -58.9489 275° West 493 567 36,000  Level FlightAware Transoceanic
Fri 01:54:00 AM 25.9389 -59.0990 275° West 493 567 36,000  Level FlightAware Transoceanic
Fri 01:55:00 AM 25.9495 -59.2491 274° West 493 567 36,000  Level FlightAware Transoceanic
Fri 01:56:00 AM 25.9599 -59.3992 274° West 493 567 36,000  Level FlightAware Transoceanic
Fri 01:56:29 AM 25.9667 -59.4000 274° West 488 562 36,000  Level New York Oceanic (ODAPS)
Fri 01:57:00 AM 25.9701 -59.5494 274° West 493 567 36,000  Level FlightAware Transoceanic
Fri 01:58:00 AM 25.9802 -59.6996 274° West 493 567 36,000  Level FlightAware Transoceanic
Fri 01:59:00 AM 25.9902 -59.8498 274° West 493 567 36,000  Level FlightAware Transoceanic
Fri 02:00:00 AM 26.0000 -60.0000 277° West 493 567 36,000 652 Level FlightAware Transoceanic
Fri 02:00:32 AM 26.0000 -60.0000 277° West 497 572 37,000  Climbing New York Oceanic (ODAPS)
Fri 02:01:00 AM 26.0165 -60.1514 277° West 493 567 36,000 -682 Descending FlightAware Transoceanic
Fri 02:02:00 AM 26.0322 -60.2980 277° West 488 562 36,000  Level FlightAware Transoceanic
Fri 02:03:00 AM 26.0481 -60.4470 277° West 488 562 36,000  Level FlightAware Transoceanic
Fri 02:04:00 AM 26.0639 -60.5961 277° West 488 562 36,000  Level FlightAware Transoceanic
Fri 02:05:00 AM 26.0794 -60.7452 277° West 488 562 36,000 500 Level FlightAware Transoceanic
Fri 02:06:00 AM 26.0963 -60.9088 277° West 497 572 37,000 500 Climbing FlightAware Transoceanic
Fri 02:07:00 AM 26.1118 -61.0604 276° West 497 572 37,000  Level FlightAware Transoceanic
Fri 02:08:00 AM 26.1272 -61.2121 276° West 497 572 37,000  Level FlightAware Transoceanic
Fri 02:09:00 AM 26.1424 -61.3638 276° West 497 572 37,000  Level FlightAware Transoceanic
Fri 02:10:00 AM 26.1574 -61.5155 276° West 497 572 37,000  Level FlightAware Transoceanic
Fri 02:10:22 AM 26.1500 -61.4833 276° West 493 567 37,000  Level New York Oceanic (ODAPS)
Fri 02:11:00 AM 26.1723 -61.6673 276° West 497 572 37,000  Level FlightAware Transoceanic
Fri 02:12:00 AM 26.1870 -61.8191 276° West 497 572 37,000  Level FlightAware Transoceanic
Fri 02:13:00 AM 26.2015 -61.9710 276° West 497 572 37,000  Level FlightAware Transoceanic
Fri 02:14:00 AM 26.2159 -62.1228 276° West 497 572 37,000  Level FlightAware Transoceanic
Fri 02:15:00 AM 26.2301 -62.2748 276° West 497 572 37,000  Level FlightAware Transoceanic
Fri 02:16:00 AM 26.2379 -62.3982 276° West 493 567 37,000  Level FlightAware Transoceanic
Fri 02:17:00 AM 26.2519 -62.5508 276° West 493 567 37,000  Level FlightAware Transoceanic
Fri 02:18:00 AM 26.2658 -62.7034 276° West 493 567 37,000  Level FlightAware Transoceanic
Fri 02:19:00 AM 26.2796 -62.8561 276° West 493 567 37,000  Level FlightAware Transoceanic
Fri 02:20:00 AM 26.2932 -63.0088 276° West 493 567 37,000  Level FlightAware Transoceanic
Fri 02:21:00 AM 26.3066 -63.1616 276° West 493 567 37,000  Level FlightAware Transoceanic
Fri 02:22:00 AM 26.3199 -63.3144 276° West 493 567 37,000  Level FlightAware Transoceanic
Fri 02:23:00 AM 26.3330 -63.4672 275° West 493 567 37,000  Level FlightAware Transoceanic
Fri 02:24:00 AM 26.3459 -63.6200 275° West 493 567 37,000  Level FlightAware Transoceanic
Fri 02:24:15 AM 26.3500 -63.5667 275° West 492 566 37,000  Level New York Oceanic (ODAPS)
Fri 02:25:00 AM 26.3587 -63.7729 275° West 493 567 37,000  Level FlightAware Transoceanic
Fri 02:26:00 AM 26.3713 -63.9259 275° West 493 567 37,000  Level FlightAware Transoceanic
Fri 02:27:00 AM 26.3838 -64.0788 275° West 493 567 37,000  Level FlightAware Transoceanic
Fri 02:28:00 AM 26.3961 -64.2318 275° West 493 567 37,000  Level FlightAware Transoceanic
Fri 02:29:00 AM 26.4082 -64.3848 275° West 493 567 37,000  Level FlightAware Transoceanic
Fri 02:30:00 AM 26.4221 -64.4692 275° West 492 566 37,000  Level FlightAware Transoceanic
Fri 02:31:00 AM 26.4336 -64.6197 275° West 492 566 37,000  Level FlightAware Transoceanic
Fri 02:32:00 AM 26.4449 -64.7702 275° West 492 566 37,000  Level FlightAware Transoceanic
Fri 02:33:00 AM 26.4560 -64.9208 275° West 492 566 37,000  Level FlightAware Transoceanic
Fri 02:34:00 AM 26.4670 -65.0714 275° West 492 566 37,000  Level FlightAware Transoceanic
Fri 02:35:00 AM 26.4778 -65.2221 275° West 492 566 37,000  Level FlightAware Transoceanic
Fri 02:36:00 AM 26.4885 -65.3727 274° West 492 566 37,000  Level FlightAware Transoceanic
Fri 02:37:00 AM 26.4990 -65.5235 274° West 492 566 37,000  Level FlightAware Transoceanic
Fri 02:38:00 AM 26.5094 -65.6742 274° West 492 566 37,000  Level FlightAware Transoceanic
Fri 02:38:08 AM 26.5167 -65.6667 274° West 497 572 37,000  Level New York Oceanic (ODAPS)
Fri 02:39:00 AM 26.5196 -65.8249 274° West 492 566 37,000  Level FlightAware Transoceanic
Fri 02:40:00 AM 26.5296 -65.9757 274° West 492 566 37,000  Level FlightAware Transoceanic
Fri 02:41:00 AM 26.5395 -66.1265 274° West 492 566 37,000  Level FlightAware Transoceanic
Fri 02:42:00 AM 26.5492 -66.2773 274° West 492 566 37,000  Level FlightAware Transoceanic
Fri 02:43:00 AM 26.5588 -66.4282 274° West 492 566 37,000  Level FlightAware Transoceanic
Fri 02:44:00 AM 26.5760 -66.6112 274° West 497 572 37,000  Level FlightAware Transoceanic
Fri 02:45:00 AM 26.5853 -66.7687 274° West 497 572 37,000  Level FlightAware Transoceanic
Fri 02:46:00 AM 26.5944 -66.9263 274° West 497 572 37,000  Level FlightAware Transoceanic
Fri 02:47:00 AM 26.6034 -67.0838 274° West 497 572 37,000  Level FlightAware Transoceanic
Fri 02:48:00 AM 26.6122 -67.2414 274° West 497 572 37,000  Level FlightAware Transoceanic
Fri 02:49:00 AM 26.6208 -67.3990 273° West 497 572 37,000  Level FlightAware Transoceanic
Fri 02:50:00 AM 26.6292 -67.5567 273° West 497 572 37,000  Level FlightAware Transoceanic
Fri 02:51:00 AM 26.6374 -67.7143 273° West 497 572 37,000  Level FlightAware Transoceanic
Fri 02:52:00 AM 26.6455 -67.8720 273° West 497 572 37,000  Level FlightAware Transoceanic
Fri 02:52:00 AM 26.6500 -67.8167 273° West 505 581 37,000  Level New York Oceanic (ODAPS)
Fri 02:53:00 AM 26.6534 -68.0297 273° West 497 572 37,000  Level FlightAware Transoceanic
Fri 02:54:00 AM 26.6611 -68.1875 273° West 497 572 37,000  Level FlightAware Transoceanic
Fri 02:55:00 AM 26.6687 -68.3452 273° West 497 572 37,000  Level FlightAware Transoceanic
Fri 02:56:00 AM 26.6761 -68.5030 273° West 497 572 37,000  Level FlightAware Transoceanic
Fri 02:57:00 AM 26.6833 -68.6608 273° West 497 572 37,000  Level FlightAware Transoceanic
Fri 02:58:00 AM 26.6922 -68.7964 273° West 505 581 37,000  Level FlightAware Transoceanic
Fri 02:59:00 AM 26.6986 -68.9598 272° West 505 581 37,000  Level FlightAware Transoceanic
Fri 03:00:00 AM 26.7048 -69.1232 272° West 505 581 37,000  Level FlightAware Transoceanic
Fri 03:01:00 AM 26.7108 -69.2866 272° West 505 581 37,000  Level FlightAware Transoceanic
Fri 03:02:00 AM 26.7167 -69.4500 274° West 505 581 37,000  Level FlightAware Transoceanic
Fri 03:02:21 AM 26.7167 -69.4500 274° West 506 582 37,000  Level New York Oceanic (ODAPS)
Fri 03:03:00 AM 26.7254 -69.6013 274° West 505 581 37,000  Level FlightAware Transoceanic
Fri 03:04:00 AM 26.7340 -69.7526 274° West 505 581 37,000  Level FlightAware Transoceanic
Fri 03:05:00 AM 26.7424 -69.9039 274° West 505 581 37,000  Level FlightAware Transoceanic
Fri 03:05:54 AM 26.7500 -70.0000 273° West 503 579 37,000  Level New York Oceanic (ODAPS)
Fri 03:06:00 AM 26.7507 -70.0552 273° West 505 581 37,000  Level FlightAware Transoceanic
Fri 03:07:00 AM 26.7588 -70.2066 273° West 505 581 37,000  Level FlightAware Transoceanic
Fri 03:08:00 AM 26.7683 -70.3873 273° West 506 582 37,000  Level FlightAware Transoceanic
Fri 03:09:00 AM 26.7763 -70.5435 273° West 506 582 37,000  Level FlightAware Transoceanic
Fri 03:10:00 AM 26.7841 -70.6999 273° West 506 582 37,000  Level FlightAware Transoceanic
Fri 03:11:00 AM 26.7917 -70.8562 273° West 506 582 37,000  Level FlightAware Transoceanic
Fri 03:12:00 AM 26.7983 -70.9544 273° West 503 579 37,000  Level FlightAware Transoceanic
Fri 03:13:00 AM 26.8057 -71.1135 273° West 503 579 37,000  Level FlightAware Transoceanic
Fri 03:14:00 AM 26.8129 -71.2727 273° West 503 579 37,000  Level FlightAware Transoceanic
Fri 03:15:00 AM 26.8200 -71.4319 273° West 503 579 37,000  Level FlightAware Transoceanic
Fri 03:16:00 AM 26.8269 -71.5911 273° West 503 579 37,000  Level FlightAware Transoceanic
Fri 03:17:00 AM 26.8336 -71.7503 273° West 503 579 37,000  Level FlightAware Transoceanic
Fri 03:18:00 AM 26.8401 -71.9095 273° West 503 579 37,000  Level FlightAware Transoceanic
Fri 03:19:00 AM 26.8465 -72.0688 273° West 503 579 37,000  Level FlightAware Transoceanic
Fri 03:19:44 AM 26.8500 -72.1333 272° West 490 564 37,000  Level New York Oceanic (ODAPS)
Fri 03:20:00 AM 26.8526 -72.2281 272° West 503 579 37,000  Level FlightAware Transoceanic
Fri 03:21:00 AM 26.8587 -72.3874 272° West 503 579 37,000  Level FlightAware Transoceanic
Fri 03:22:00 AM 26.8645 -72.5467 272° West 503 579 37,000  Level FlightAware Transoceanic
Fri 03:23:00 AM 26.8701 -72.7060 272° West 503 579 37,000  Level FlightAware Transoceanic
Fri 03:24:00 AM 26.8756 -72.8653 272° West 503 579 37,000  Level FlightAware Transoceanic
Fri 03:25:00 AM 26.8776 -72.9068 272° West 490 564 37,000  Level FlightAware Transoceanic
Fri 03:26:00 AM 26.8826 -73.0616 272° West 490 564 37,000  Level FlightAware Transoceanic
Fri 03:27:00 AM 26.8875 -73.2163 272° West 490 564 37,000  Level FlightAware Transoceanic
Fri 03:28:00 AM 26.8921 -73.3711 272° West 490 564 37,000  Level FlightAware Transoceanic
Fri 03:29:00 AM 26.8967 -73.5259 272° West 490 564 37,000  Level FlightAware Transoceanic
Fri 03:30:00 AM 26.9010 -73.6807 272° West 490 564 37,000  Level FlightAware Transoceanic
Fri 03:31:00 AM 26.9052 -73.8355 272° West 490 564 37,000  Level FlightAware Transoceanic
Fri 03:31:11 AM 26.9000 -73.7667 272° West 576 663 37,000  Level New York Oceanic (ODAPS)
Fri 03:32:00 AM 26.9092 -73.9903 272° West 490 564 37,000  Level FlightAware Transoceanic
Fri 03:32:36 AM 27.0300 -74.0228 279° West 482 555 37,000  Level Miami Center
Fri 03:33:00 AM 26.9130 -74.1452 272° West 490 564 37,000  Level FlightAware Transoceanic
Fri 03:33:36 AM 27.1278 -74.1114 321° Northwest 477 549 37,000  Level Miami Center
Fri 03:34:00 AM 26.9167 -74.3000 280° West 490 564 37,000 947 Level FlightAware Transoceanic
Fri 03:34:33 AM 27.2425 -74.2136 322° Northwest 485 558 37,900  Climbing Miami Center
Fri 03:35:00 AM 26.9389 -74.4486 280° West 490 564 37,000 1,065 Descending FlightAware Transoceanic
Fri 03:35:35 AM 27.3381 -74.3025 320° Northwest 479 551 39,000  Climbing Miami Center
Fri 03:36:00 AM 26.9611 -74.5973 279° West 490 564 37,000  Descending FlightAware Transoceanic
Fri 03:36:34 AM 27.4358 -74.3964 320° Northwest 472 543 39,000  Climbing Miami Center
Fri 03:37:00 AM 27.0021 -74.8757 279° West 576 663 37,000  Descending FlightAware Transoceanic
Fri 03:37:36 AM 27.5481 -74.5017 320° Northwest 461 531 39,000 1,290 Climbing Miami Center
Fri 03:38:33 AM 27.6436 -74.5889 321° Northwest 461 531 39,000  Level Miami Center
Fri 03:39:34 AM 27.7453 -74.6831 321° Northwest 462 532 39,000  Level Miami Center
Fri 03:40:35 AM 27.8489 -74.7750 322° Northwest 473 544 39,000  Level Miami Center
Fri 03:41:33 AM 27.9525 -74.8742 320° Northwest 520 598 39,000  Level Miami Center
Fri 03:42:35 AM 28.0625 -74.9781 320° Northwest 520 598 39,000  Level Miami Center
Fri 03:43:33 AM 28.1744 -75.0822 321° Northwest 520 598 39,000  Level Miami Center
Fri 03:44:34 AM 28.2400 -75.1450 320° Northwest 520 598 39,000  Level Miami Center
Fri 03:46:34 AM 28.2400 -75.1450 286° West 520 598 39,000  Level Miami Center
Fri 03:48:33 AM 28.2400 -75.1450 286° West 520 598 39,000  Level Miami Center
Fri 03:50:33 AM 28.2400 -75.1450 286° West 520 598 39,000  Level Miami Center
Fri 03:52:33 AM 28.2400 -75.1450 286° West 520 598 39,000  Level Miami Center
Fri 03:54:33 AM 28.6781 -76.5272 290° West 520 598 39,000  Level Miami Center
Fri 03:55:34 AM 28.7261 -76.6406 296° West 478 550 39,000  Level Miami Center
Fri 03:56:36 AM 28.7681 -76.7828 289° West 466 536 39,000  Level Miami Center
Fri 03:57:35 AM 28.7786 -76.9225 275° West 461 531 39,000  Level Miami Center
Fri 03:58:36 AM 28.7908 -77.0694 275° West 456 525 39,000 -50 Level Miami Center
Fri 03:59:36 AM 28.8011 -77.2139 275° West 461 531 38,900 250 Descending Miami Center
Fri 04:00:36 AM 28.8131 -77.3631 275° West 466 536 39,500 513 Climbing Miami Center
Fri 04:01:33 AM 28.8272 -77.5100 276° West 471 542 39,900 256 Climbing Miami Center
Fri 04:02:33 AM 28.8347 -77.6572 273° West 471 542 40,000 16 Climbing Miami Center
Fri 04:07:43 AM 28.8900 -78.4410 273° West 483 556 40,000  Level FlightAware ADS-B
Fri 04:08:47 AM 28.8990 -78.5800 274° West 483 556 40,000  Level FlightAware ADS-B
Fri 04:09:25 AM 28.9070 -78.7000 274° West 483 556 40,000  Level FlightAware ADS-B
Fri 04:10:09 AM 28.9150 -78.8120 275° West 485 558 40,000  Level FlightAware ADS-B
Fri 04:10:47 AM 28.9210 -78.9100 274° West 486 559 40,000  Level FlightAware ADS-B
Fri 04:11:31 AM 28.9280 -79.0210 274° West 485 558 40,000  Level FlightAware ADS-B
Fri 04:12:10 AM 28.9340 -79.1220 274° West 485 558 40,000  Level FlightAware ADS-B
Fri 04:12:59 AM 28.9420 -79.2430 274° West 484 557 40,000  Level FlightAware ADS-B
Fri 04:13:36 AM 28.9470 -79.3230 274° West 484 557 40,000  Level FlightAware ADS-B
Fri 04:14:24 AM 28.9530 -79.4280 274° West 484 557 40,000  Level FlightAware ADS-B
Fri 04:15:01 AM 28.9580 -79.5080 274° West 484 557 40,000  Level FlightAware ADS-B
Fri 04:15:37 AM 28.9630 -79.5860 274° West 484 557 40,000  Level FlightAware ADS-B
Fri 04:16:25 AM 28.9690 -79.6900 274° West 484 557 40,000  Level FlightAware ADS-B
Fri 04:17:01 AM 28.9740 -79.7680 274° West 484 557 40,000  Level FlightAware ADS-B
Fri 04:17:49 AM 28.9800 -79.8720 274° West 484 557 40,000  Level FlightAware ADS-B
Fri 04:18:25 AM 28.9850 -79.9510 274° West 484 557 40,000  Level FlightAware ADS-B
Fri 04:19:15 AM 28.9980 -80.1930 274° West 472 543 40,000  Level FlightAware ADS-B
Fri 04:19:58 AM 29.0020 -80.2870 273° West 472 543 40,000  Level FlightAware ADS-B
Fri 04:20:34 AM 29.0060 -80.3640 273° West 472 543 40,000  Level FlightAware ADS-B
Fri 04:21:22 AM 29.0100 -80.4650 273° West 472 543 40,000  Level FlightAware ADS-B
Fri 04:21:58 AM 29.0140 -80.5420 273° West 472 543 40,000  Level FlightAware ADS-B
Fri 04:22:42 AM 29.0250 -80.7060 274° West 470 541 40,000  Level FlightAware ADS-B
Fri 04:23:30 AM 29.0300 -80.8100 273° West 470 541 40,000  Level FlightAware ADS-B
Fri 04:24:08 AM 29.0360 -80.9190 274° West 465 535 40,000  Level FlightAware ADS-B
Fri 04:24:50 AM 29.0400 -81.0050 273° West 465 535 40,000  Level FlightAware ADS-B
Fri 04:25:31 AM 29.0460 -81.1210 273° West 460 529 40,000  Level FlightAware ADS-B
Fri 04:26:11 AM 29.0490 -81.2030 272° West 460 529 40,000  Level FlightAware ADS-B
Fri 04:27:00 AM 29.0540 -81.3050 273° West 460 529 40,000  Level FlightAware ADS-B
Fri 04:27:33 AM 29.0590 -81.4050 273° West 455 524 40,000  Level FlightAware ADS-B
Fri 04:28:22 AM 29.0630 -81.5050 273° West 455 524 40,000  Level FlightAware ADS-B
Fri 04:28:59 AM 29.0670 -81.5810 273° West 455 524 40,000  Level FlightAware ADS-B
Fri 04:29:44 AM 29.0730 -81.7270 273° West 453 521 40,000  Level FlightAware ADS-B
Fri 04:30:26 AM 29.0780 -81.8280 273° West 454 522 40,000  Level FlightAware ADS-B
Fri 04:31:07 AM 29.0820 -81.9260 273° West 455 524 40,000  Level FlightAware ADS-B
Fri 04:31:50 AM 29.0860 -82.0300 273° West 454 522 40,000  Level FlightAware ADS-B
Fri 04:32:30 AM 29.0900 -82.1270 273° West 455 524 40,000  Level FlightAware ADS-B
Fri 04:33:17 AM 29.0950 -82.2390 273° West 456 525 40,000  Level FlightAware ADS-B
Fri 04:33:58 AM 29.0980 -82.3380 272° West 455 524 40,000  Level FlightAware ADS-B
Fri 04:34:25 AM 29.1010 -82.4040 273° West 454 522 40,000  Level FlightAware ADS-B
Fri 04:35:08 AM 29.1050 -82.5050 273° West 454 522 40,000  Level FlightAware ADS-B
Fri 04:35:52 AM 29.1090 -82.6100 273° West 454 522 40,000  Level FlightAware ADS-B
Fri 04:36:32 AM 29.1120 -82.7060 272° West 453 521 40,000  Level FlightAware ADS-B
Fri 04:37:14 AM 29.1160 -82.8060 273° West 455 524 40,000  Level FlightAware ADS-B
Fri 04:37:55 AM 29.1190 -82.9070 272° West 454 522 40,000  Level FlightAware ADS-B
Fri 04:38:52 AM 29.1240 -83.0390 273° West 449 517 40,000  Level FlightAware ADS-B
Fri 04:39:32 AM 29.1270 -83.1340 272° West 450 518 40,000  Level FlightAware ADS-B
Fri 04:40:16 AM 29.1300 -83.2400 272° West 451 519 40,000  Level FlightAware ADS-B
Fri 04:40:56 AM 29.1340 -83.3370 273° West 455 524 40,000  Level FlightAware ADS-B
Fri 04:41:42 AM 29.1370 -83.4470 272° West 461 531 40,000  Level FlightAware ADS-B
Fri 04:42:20 AM 29.1400 -83.5370 272° West 461 531 40,000  Level FlightAware ADS-B
Fri 04:42:56 AM 29.1420 -83.6150 272° West 461 531 40,000  Level FlightAware ADS-B
Fri 04:43:44 AM 29.1450 -83.7150 272° West 461 531 40,000  Level FlightAware ADS-B
Fri 04:44:21 AM 29.1470 -83.7910 272° West 461 531 40,000  Level FlightAware ADS-B
Fri 04:45:09 AM 29.1510 -83.8910 273° West 461 531 40,000  Level FlightAware ADS-B
Fri 04:45:45 AM 29.1530 -83.9660 272° West 461 531 40,000  Level FlightAware ADS-B
Fri 04:46:33 AM 29.1560 -84.0650 272° West 461 531 40,000  Level FlightAware ADS-B
Fri 04:47:20 AM 29.1590 -84.1630 272° West 461 531 40,000  Level FlightAware ADS-B
Fri 04:47:56 AM 29.1610 -84.2370 272° West 461 531 40,000  Level FlightAware ADS-B
Fri 04:48:44 AM 29.1640 -84.3370 272° West 461 531 40,000  Level FlightAware ADS-B
Fri 04:49:20 AM 29.1660 -84.4120 272° West 461 531 40,000  Level FlightAware ADS-B
Fri 04:50:21 AM 29.1700 -84.5380 272° West 461 531 40,000  Level FlightAware ADS-B
Fri 04:50:57 AM 29.1730 -84.6130 273° West 461 531 40,000  Level FlightAware ADS-B
Fri 04:51:45 AM 29.1760 -84.7130 272° West 461 531 40,000  Level FlightAware ADS-B
Fri 04:52:23 AM 29.1780 -84.7910 272° West 461 531 40,000 -82 Level FlightAware ADS-B
Fri 04:52:58 AM 29.1756 -85.0400 272° West 450 518 39,900  Descending Jacksonville Center
Fri 04:53:58 AM 29.1769 -85.1900 271° West 461 531 40,000 50 Climbing Jacksonville Center
Fri 04:54:58 AM 29.1806 -85.3350 272° West 461 531 40,000 -50 Level Jacksonville Center
Fri 04:55:58 AM 29.1819 -85.4803 271° West 456 525 39,900  Descending Jacksonville Center
Fri 04:56:58 AM 29.1853 -85.6253 272° West 462 532 40,000  Climbing Jacksonville Center
Fri 04:57:58 AM 29.1861 -85.7706 270° West 462 532 39,900 -50 Descending Jacksonville Center
Fri 04:58:58 AM 29.1886 -85.9322 271° West 462 532 39,900  Level Jacksonville Center
Fri 04:59:58 AM 29.1936 -86.0775 272° West 457 526 39,900 50 Level Jacksonville Center
Fri 05:00:58 AM 29.1939 -86.2272 270° West 457 526 40,000 50 Climbing Jacksonville Center
Fri 05:01:58 AM 29.1961 -86.3747 271° West 457 526 40,000  Level Jacksonville Center
Fri 05:07:46 AM 29.1990 -87.2340 271° West 466 536 40,000  Level FlightAware ADS-B
Fri 05:08:24 AM 29.1990 -87.3140 270° West 466 536 40,000  Level FlightAware ADS-B
Fri 05:09:14 AM 29.2000 -87.4540 271° West 464 534 40,000  Level FlightAware ADS-B
Fri 05:09:49 AM 29.2000 -87.5240 270° West 463 533 40,000  Level FlightAware ADS-B
Fri 05:10:36 AM 29.2000 -87.6500 270° West 464 534 40,000  Level FlightAware ADS-B
Fri 05:11:34 AM 29.1990 -87.7940 270° West 463 533 40,000  Level FlightAware ADS-B
Fri 05:12:15 AM 29.2000 -87.8870 271° West 463 533 40,000  Level FlightAware ADS-B
Fri 05:12:58 AM 29.2080 -88.0010 275° West 466 536 40,000  Level FlightAware ADS-B
Fri 05:13:55 AM 29.2180 -88.1320 275° West 466 536 40,000  Level FlightAware ADS-B
Fri 05:14:32 AM 29.2260 -88.2280 275° West 465 535 40,000  Level FlightAware ADS-B
Fri 05:15:30 AM 29.2360 -88.3590 275° West 464 534 40,000  Level FlightAware ADS-B
Fri 05:16:12 AM 29.2440 -88.4750 275° West 463 533 40,000  Level FlightAware ADS-B
Fri 05:16:56 AM 29.2520 -88.5830 275° West 463 533 40,000  Level FlightAware ADS-B
Fri 05:17:38 AM 29.2590 -88.6850 275° West 463 533 40,000  Level FlightAware ADS-B
Fri 05:18:28 AM 29.2680 -88.8060 275° West 463 533 40,000  Level FlightAware ADS-B
Fri 05:19:16 AM 29.2760 -88.9250 274° West 464 534 40,000  Level FlightAware ADS-B
Fri 05:20:00 AM 29.2830 -89.0330 274° West 464 534 40,000  Level FlightAware ADS-B
Fri 05:20:39 AM 29.2890 -89.1250 274° West 458 527 40,000  Level FlightAware ADS-B
Fri 05:21:20 AM 29.2960 -89.2260 275° West 455 524 40,000  Level FlightAware ADS-B
Fri 05:22:04 AM 29.3030 -89.3300 274° West 456 525 40,000  Level FlightAware ADS-B
Fri 05:22:56 AM 29.3100 -89.4420 274° West 457 526 40,000  Level FlightAware ADS-B
Fri 05:23:44 AM 29.3180 -89.5730 274° West 457 526 40,000  Level FlightAware ADS-B
Fri 05:24:24 AM 29.3240 -89.6660 274° West 458 527 40,000  Level FlightAware ADS-B
Fri 05:25:02 AM 29.3300 -89.7600 274° West 456 525 40,000  Level FlightAware ADS-B
Fri 05:25:48 AM 29.3370 -89.8720 274° West 457 526 40,000  Level FlightAware ADS-B
Fri 05:26:28 AM 29.3420 -89.9630 274° West 457 526 40,000  Level FlightAware ADS-B
Fri 05:27:09 AM 29.3490 -90.0640 275° West 457 526 40,000  Level FlightAware ADS-B
Fri 05:27:54 AM 29.3550 -90.1740 274° West 458 527 40,000  Level FlightAware ADS-B
Fri 05:28:35 AM 29.3600 -90.2560 274° West 457 526 40,000  Level FlightAware ADS-B
Fri 05:29:10 AM 29.3690 -90.3575 276° West 459 528 40,000  Level FlightAware ADS-B
Fri 05:30:30 AM 29.3930 -90.5410 279° West 460 529 40,000  Level FlightAware ADS-B
Fri 05:31:09 AM 29.4082 -90.6443 280° West 462 532 40,000  Level FlightAware ADS-B
Fri 05:33:37 AM 29.4568 -91.0049 279° West 459 528 40,000  Level FlightAware ADS-B
Fri 05:34:08 AM 29.4665 -91.0788 279° West 457 526 40,000  Level FlightAware ADS-B
Fri 05:34:49 AM 29.4794 -91.1767 279° West 457 526 40,000  Level FlightAware ADS-B
Fri 05:35:19 AM 29.4887 -91.2487 278° West 456 525 40,000  Level FlightAware ADS-B
Fri 05:35:58 AM 29.5009 -91.3414 279° West 455 524 40,000  Level FlightAware ADS-B
Fri 05:36:36 AM 29.5124 -91.4310 278° West 454 522 40,000  Level FlightAware ADS-B
Fri 05:37:07 AM 29.5218 -91.5050 278° West 456 525 40,000  Level FlightAware ADS-B
Fri 05:37:41 AM 29.5323 -91.5865 278° West 456 525 40,000  Level FlightAware ADS-B
Fri 05:38:12 AM 29.5417 -91.6601 278° West 457 526 40,000  Level FlightAware ADS-B
Fri 05:38:42 AM 29.5509 -91.7330 278° West 457 526 40,000  Level FlightAware ADS-B
Fri 05:39:13 AM 29.5602 -91.8056 278° West 457 526 40,000  Level FlightAware ADS-B
Fri 05:39:43 AM 29.5693 -91.8787 278° West 457 526 40,000  Level FlightAware ADS-B
Fri 05:40:15 AM 29.5790 -91.9563 278° West 457 526 40,000  Level FlightAware ADS-B
Fri 05:40:45 AM 29.5880 -92.0284 278° West 458 527 40,000  Level FlightAware ADS-B
Fri 05:41:16 AM 29.5971 -92.1013 278° West 457 526 40,000  Level FlightAware ADS-B
Fri 05:41:47 AM 29.6062 -92.1753 278° West 457 526 40,000  Level FlightAware ADS-B
Fri 05:42:17 AM 29.6150 -92.2472 278° West 456 525 40,000  Level FlightAware ADS-B
Fri 05:42:47 AM 29.6238 -92.3196 278° West 456 525 40,000  Level FlightAware ADS-B
Fri 05:43:17 AM 29.6327 -92.3926 278° West 456 525 40,000  Level FlightAware ADS-B
Fri 05:43:48 AM 29.6416 -92.4662 278° West 456 525 40,000  Level FlightAware ADS-B
Fri 05:44:18 AM 29.6503 -92.5382 278° West 458 527 40,000  Level FlightAware ADS-B
Fri 05:44:49 AM 29.6592 -92.6128 278° West 460 529 40,000  Level FlightAware ADS-B
Fri 05:45:19 AM 29.6678 -92.6853 278° West 459 528 40,000  Level FlightAware ADS-B
Fri 05:45:49 AM 29.6767 -92.7588 278° West 461 531 40,000  Level FlightAware ADS-B
Fri 05:46:20 AM 29.6853 -92.8325 278° West 461 531 40,000  Level FlightAware ADS-B
Fri 05:46:50 AM 29.6938 -92.9048 278° West 455 524 40,000  Level FlightAware ADS-B
Fri 05:47:20 AM 29.7022 -92.9768 278° West 452 520 40,000 -200 Level FlightAware ADS-B
Fri 05:47:50 AM 29.7106 -93.0476 278° West 443 510 39,800 -700 Descending FlightAware ADS-B
Fri 05:48:20 AM 29.7186 -93.1175 278° West 438 504 39,300 -1,180 Descending FlightAware ADS-B
Fri 05:48:51 AM 29.7267 -93.1871 278° West 440 506 38,600 -1,258 Descending FlightAware ADS-B
Fri 05:49:22 AM 29.7349 -93.2584 278° West 439 505 38,000 -1,279 Descending FlightAware ADS-B
Fri 05:49:52 AM 29.7428 -93.3284 277° West 441 507 37,300 -1,600 Descending FlightAware ADS-B
Fri 05:50:22 AM 29.7509 -93.3998 277° West 448 516 36,400 -1,500 Descending FlightAware ADS-B
Fri 05:50:52 AM 29.7589 -93.4712 277° West 450 518 35,800 -1,279 Descending FlightAware ADS-B
Fri 05:51:23 AM 29.7671 -93.5434 277° West 452 520 35,100 -1,279 Descending FlightAware ADS-B
Fri 05:51:53 AM 29.7751 -93.6146 277° West 451 519 34,500 -1,400 Descending FlightAware ADS-B
Fri 05:52:23 AM 29.7832 -93.6864 277° West 446 513 33,700 -2,361 Descending FlightAware ADS-B
Fri 05:52:54 AM 29.7911 -93.7582 277° West 447 514 32,100 -3,246 Descending FlightAware ADS-B
Fri 05:53:24 AM 29.7990 -93.8294 277° West 453 521 30,400 -3,100 Descending FlightAware ADS-B
Fri 05:53:54 AM 29.8069 -93.9015 277° West 449 517 29,000 -2,700 Descending FlightAware ADS-B
Fri 05:54:24 AM 29.8145 -93.9723 277° West 442 509 27,700 -2,600 Descending FlightAware ADS-B
Fri 05:54:54 AM 29.8222 -94.0422 277° West 435 501 26,400 -2,557 Descending FlightAware ADS-B
Fri 05:55:25 AM 29.8295 -94.1112 277° West 429 494 25,100 -2,613 Descending FlightAware ADS-B
Fri 05:55:56 AM 29.8365 -94.1808 277° West 424 488 23,700 -2,852 Descending FlightAware ADS-B
Fri 05:56:26 AM 29.8429 -94.2483 276° West 419 482 22,200 -3,164 Descending FlightAware ADS-B
Fri 05:56:51 AM 29.8483 -94.3051 276° West 418 481 20,800 -2,893 Descending FlightAware ADS-B
Fri 05:57:22 AM 29.8602 -94.3706 282° West 408 470 19,500 -2,516 Descending FlightAware ADS-B
Fri 05:57:53 AM 29.8740 -94.4340 284° West 397 457 18,200 -2,557 Descending FlightAware ADS-B
Fri 05:58:23 AM 29.8861 -94.4950 283° West 384 442 16,900 -2,700 Descending FlightAware ADS-B
Fri 05:58:53 AM 29.8971 -94.5544 282° West 370 426 15,500 -3,100 Descending FlightAware ADS-B
Fri 05:59:23 AM 29.9074 -94.6126 282° West 363 418 13,800 -3,200 Descending FlightAware ADS-B
Fri 05:59:53 AM 29.9175 -94.6692 282° West 358 412 12,300 -2,900 Descending FlightAware ADS-B
Fri 06:00:23 AM 29.9274 -94.7230 282° West 352 405 10,900 -2,100 Descending FlightAware ADS-B
Fri 06:00:53 AM 29.9371 -94.7765 282° West 327 376 10,200 -700 Descending FlightAware ADS-B
Fri 06:01:23 AM 29.9460 -94.8250 282° West 282 325 10,200 -656 Level FlightAware ADS-B
Fri 06:01:57 AM 29.9546 -94.8713 282° West 262 302 9,500 -1,548 Descending FlightAware ADS-B
Fri 06:02:25 AM 29.9614 -94.9091 281° West 255 293 8,600 -1,902 Descending FlightAware ADS-B
Fri 06:02:38 AM 29.9647 -94.9272 282° West 255 293 8,200 -2,222 Descending FlightAware ADS-B
Fri 06:02:52 AM 29.9680 -94.9450 282° West 255 293 7,600 -1,610 Descending FlightAware ADS-B
Fri 06:03:19 AM 29.9745 -94.9797 282° West 234 269 7,100 -1,135 Descending FlightAware ADS-B
Fri 06:03:29 AM 29.9762 -94.9912 279° West 227 261 6,900 -1,263 Descending FlightAware ADS-B
Fri 06:03:38 AM 29.9772 -95.0019 275° West 223 257 6,700 -1,000 Descending FlightAware ADS-B
Fri 06:03:47 AM 29.9775 -95.0123 272° West 212 244 6,600 -1,932 Descending FlightAware ADS-B
Fri 06:04:37 AM 29.9775 -95.0639 270° West 181 208 4,800 -2,100 Descending FlightAware ADS-B
Fri 06:04:47 AM 29.9776 -95.0734 271° West 176 203 4,500 -1,800 Descending FlightAware ADS-B
Fri 06:04:57 AM 29.9775 -95.0826 269° West 169 194 4,200 -1,800 Descending FlightAware ADS-B
Fri 06:05:17 AM 29.9776 -95.1000 270° West 161 185 3,600 -1,714 Descending FlightAware ADS-B
Fri 06:05:25 AM 29.9775 -95.1071 269° West 158 182 3,400 -1,000 Descending FlightAware ADS-B
Fri 06:05:29 AM 29.9777 -95.1100 275° West 159 183 3,400 -1,000 Level FlightAware ADS-B
Fri 06:05:37 AM 29.9779 -95.1170 272° West 161 185 3,200 -900 Descending FlightAware ADS-B
Fri 06:05:49 AM 29.9775 -95.1273 267° West 164 189 3,100 -857 Descending FlightAware ADS-B
Fri 06:06:05 AM 29.9773 -95.1414 270° West 165 190 2,800 -973 Descending FlightAware ADS-B
Fri 06:06:26 AM 29.9779 -95.1601 271° West 164 189 2,500 -923 Descending FlightAware ADS-B
Fri 06:06:31 AM 29.9779 -95.1642 270° West 163 188 2,400 -923 Descending FlightAware ADS-B
Fri 06:06:39 AM 29.9777 -95.1719 268° West 162 186 2,300 -818 Descending FlightAware ADS-B
Fri 06:06:53 AM 29.9775 -95.1835 269° West 161 185 2,100 -811 Descending FlightAware ADS-B
Fri 06:07:16 AM 29.9778 -95.2031 271° West 161 185 1,800 -833 Descending FlightAware ADS-B
Fri 06:07:29 AM 29.9779 -95.2143 271° West 154 177 1,600 -857 Descending FlightAware ADS-B
Fri 06:07:44 AM 29.9776 -95.2263 268° West 144 166 1,400 -667 Descending FlightAware ADS-B
Fri 06:07:56 AM 29.9776 -95.2353 270° West 142 163 1,300 -643 Descending FlightAware ADS-B
Fri 06:08:12 AM 29.9776 -95.2468 270° West 141 162 1,100 -720 Descending FlightAware ADS-B
Fri 06:08:21 AM 29.9776 -95.2538 270° West 141 162 1,000 -857 Descending FlightAware ADS-B
Fri 06:08:33 AM 29.9776 -95.2626 270° West 142 163 800 -889 Descending FlightAware ADS-B
Fri 06:08:48 AM 29.9777 -95.2742 271° West 140 161 600 -800 Descending FlightAware ADS-B
Fri 06:09:03 AM 29.9776 -95.2855 269° West 138 159 400 -581 Descending FlightAware ADS-B
Fri 06:09:19 AM 29.9777 -95.2966 271° West 136 157 300 -375 Descending FlightAware ADS-B

Login

Don't have an account? Register now (free) for customized features, flight alerts, and more!